createdAt,value
2017-11-14T05:56:12.394Z,93.10
2017-11-14T05:58:45.045Z,93.10
2017-11-14T06:01:16.931Z,93.10
2017-11-14T06:03:49.587Z,93.00
2017-11-14T06:06:21.469Z,93.00
2017-11-14T06:08:54.161Z,93.00
2017-11-14T06:11:26.032Z,93.00
2017-11-14T06:13:57.917Z,93.00
2017-11-14T06:16:29.786Z,92.80
2017-11-14T06:19:01.672Z,92.90
2017-11-14T06:21:34.318Z,93.00
2017-11-14T06:24:06.237Z,93.00
2017-11-14T06:26:38.116Z,93.20
2017-11-14T06:29:10.025Z,93.30
2017-11-14T06:31:41.893Z,93.30
2017-11-14T06:34:13.776Z,93.40
2017-11-14T06:36:45.646Z,93.80
2017-11-14T06:39:17.561Z,93.40
2017-11-14T06:41:49.433Z,93.40
2017-11-14T06:44:22.185Z,93.30
2017-11-14T06:46:54.153Z,93.30
2017-11-14T06:49:26.088Z,93.20
2017-11-14T06:51:57.957Z,93.20
2017-11-14T06:54:30.085Z,93.20
2017-11-14T06:57:01.953Z,93.20
2017-11-14T06:59:33.857Z,93.10
2017-11-14T07:02:05.736Z,93.00
2017-11-14T07:04:37.727Z,93.20
2017-11-14T07:07:09.597Z,93.10
2017-11-14T07:09:41.858Z,93.00
2017-11-14T07:12:13.736Z,93.00
2017-11-14T07:14:45.622Z,93.00
2017-11-14T07:17:17.496Z,92.80
2017-11-14T07:19:49.412Z,92.60
2017-11-14T07:22:21.284Z,92.40
2017-11-14T07:24:53.214Z,92.30
2017-11-14T07:27:25.859Z,92.20
2017-11-14T07:29:57.769Z,92.20
2017-11-14T07:32:29.641Z,92.10
2017-11-14T07:35:01.558Z,92.00
2017-11-14T07:37:34.192Z,91.80
2017-11-14T07:40:06.077Z,91.80
2017-11-14T07:42:37.969Z,91.80
2017-11-14T07:45:10.625Z,91.70
2017-11-14T07:47:42.505Z,91.70
2017-11-14T07:50:15.182Z,91.20
2017-11-14T07:52:47.817Z,91.40
2017-11-14T07:55:19.739Z,91.30
2017-11-14T07:57:51.614Z,91.40
2017-11-14T08:00:23.513Z,91.10
2017-11-14T08:02:55.386Z,91.10
2017-11-14T08:05:28.064Z,91.30
2017-11-14T08:07:59.947Z,91.20
2017-11-14T08:10:32.606Z,90.70
2017-11-14T08:13:04.476Z,90.70
2017-11-14T08:15:37.125Z,90.40
2017-11-14T08:18:08.993Z,90.30
2017-11-14T08:20:41.005Z,90.50
2017-11-14T08:23:12.875Z,90.30
2017-11-14T08:25:44.764Z,90.10
2017-11-14T08:28:16.641Z,90.20
2017-11-14T08:30:48.549Z,90.00
2017-11-14T08:33:20.426Z,90.50
2017-11-14T08:35:52.341Z,89.90
2017-11-14T08:38:24.989Z,89.50
2017-11-14T08:40:56.889Z,89.50
2017-11-14T08:43:28.756Z,89.70
2017-11-14T08:46:00.665Z,89.70
2017-11-14T08:48:32.550Z,89.60
2017-11-14T08:51:05.217Z,87.10
2017-11-14T08:53:37.110Z,87.10
2017-11-14T08:56:10.791Z,87.00
2017-11-14T08:58:43.429Z,86.80
2017-11-14T09:01:15.321Z,86.80
2017-11-14T09:03:47.198Z,86.60
2017-11-14T09:06:19.877Z,86.50
2017-11-14T09:08:52.566Z,87.20
2017-11-14T09:11:24.527Z,87.20
2017-11-14T09:13:57.170Z,87.60
2017-11-14T09:16:29.078Z,87.60
2017-11-14T09:19:00.953Z,88.00
2017-11-14T09:21:32.861Z,88.10
2017-11-14T09:24:04.728Z,88.30
2017-11-14T09:26:37.397Z,88.50
2017-11-14T09:29:09.299Z,88.40
2017-11-14T09:31:41.213Z,88.20
2017-11-14T09:34:13.094Z,87.60
2017-11-14T09:36:45.755Z,87.10
2017-11-14T09:39:17.622Z,87.00
2017-11-14T09:41:50.285Z,87.10
2017-11-14T09:44:22.157Z,86.50
2017-11-14T09:46:54.050Z,86.00
2017-11-14T09:49:25.921Z,86.00
2017-11-14T09:51:57.821Z,85.00
2017-11-14T09:54:29.709Z,83.70
2017-11-14T09:57:02.371Z,83.50
2017-11-14T09:59:34.242Z,83.50
2017-11-14T10:02:06.928Z,82.90
2017-11-14T10:04:39.573Z,83.50
2017-11-14T10:07:11.477Z,83.40
2017-11-14T10:09:43.349Z,83.70
2017-11-14T10:12:15.253Z,83.40
2017-11-14T10:14:47.140Z,83.50
2017-11-14T10:17:19.814Z,83.40
2017-11-14T10:19:52.471Z,82.90
2017-11-14T10:22:24.374Z,82.60
2017-11-14T10:24:57.011Z,82.40
2017-11-14T10:27:28.920Z,82.30
2017-11-14T10:30:00.801Z,82.70
2017-11-14T10:32:32.708Z,81.10
2017-11-14T10:35:04.581Z,82.00
2017-11-14T10:37:37.278Z,81.10
2017-11-14T10:40:09.161Z,81.10
2017-11-14T10:42:41.052Z,81.80
2017-11-14T10:45:12.927Z,80.30
2017-11-14T10:47:44.847Z,80.90
2017-11-14T10:50:16.734Z,79.30
2017-11-14T10:52:48.620Z,80.10
2017-11-14T10:55:21.268Z,79.10
2017-11-14T10:57:53.938Z,79.00
2017-11-14T11:00:25.801Z,79.50
2017-11-14T11:02:57.709Z,79.30
2017-11-14T11:05:30.345Z,79.00
2017-11-14T11:08:02.246Z,79.00
2017-11-14T11:10:34.881Z,78.20
2017-11-14T11:13:07.093Z,78.20
2017-11-14T11:15:38.985Z,78.50
2017-11-14T11:18:10.872Z,77.10
2017-11-14T11:20:42.753Z,77.00
2017-11-14T11:23:15.430Z,76.50
2017-11-14T11:25:47.299Z,76.50
2017-11-14T11:28:19.965Z,76.10
2017-11-14T11:30:51.846Z,76.10
2017-11-14T11:33:24.512Z,75.90
2017-11-14T11:35:57.153Z,74.60
2017-11-14T11:38:29.088Z,74.50
2017-11-14T11:41:00.953Z,74.60
2017-11-14T11:43:32.871Z,74.30
2017-11-14T11:46:05.518Z,73.00
2017-11-14T11:48:37.429Z,73.00
2017-11-14T11:51:10.062Z,72.00
2017-11-14T11:53:41.991Z,71.90
2017-11-14T11:56:13.869Z,71.70
2017-11-14T11:58:45.773Z,70.70
2017-11-14T12:01:18.416Z,71.40
2017-11-14T12:03:50.328Z,71.30
2017-11-14T12:06:22.213Z,71.30
2017-11-14T12:08:54.126Z,71.60
2017-11-14T12:11:26.780Z,71.90
2017-11-14T12:13:58.689Z,71.80
2017-11-14T12:16:31.330Z,70.80
2017-11-14T12:19:03.236Z,70.80
2017-11-14T12:21:35.097Z,71.70
2017-11-14T12:24:07.005Z,72.20
2017-11-14T12:26:38.898Z,71.00
2017-11-14T12:29:11.549Z,70.90
2017-11-14T12:31:43.541Z,70.80
2017-11-14T12:34:15.573Z,71.20
2017-11-14T12:36:48.332Z,69.80
2017-11-14T12:39:20.394Z,69.30
2017-11-14T12:41:52.389Z,69.10
2017-11-14T12:44:25.301Z,69.30
2017-11-14T12:46:57.298Z,68.20
2017-11-14T12:49:29.305Z,68.20
2017-11-14T12:52:02.098Z,67.30
2017-11-14T12:54:34.153Z,67.30
2017-11-14T12:57:06.929Z,69.10
2017-11-14T12:59:39.744Z,69.10
2017-11-14T13:02:11.751Z,69.00
2017-11-14T13:04:43.821Z,69.20
2017-11-14T13:07:15.745Z,69.00
2017-11-14T13:09:47.629Z,69.10
2017-11-14T13:12:19.509Z,68.70
2017-11-14T13:14:51.428Z,67.30
2017-11-14T13:17:23.305Z,68.20
2017-11-14T13:19:55.208Z,68.20
2017-11-14T13:22:27.865Z,67.90
2017-11-14T13:24:59.761Z,67.90
2017-11-14T13:27:32.408Z,68.70
2017-11-14T13:30:04.309Z,68.70
2017-11-14T13:32:36.325Z,67.20
2017-11-14T13:35:08.226Z,67.90
2017-11-14T13:37:41.066Z,66.70
2017-11-14T13:40:12.969Z,66.60
2017-11-14T13:42:44.866Z,66.50
2017-11-14T13:45:16.769Z,67.20
2017-11-14T13:47:48.641Z,67.30
2017-11-14T13:50:21.298Z,67.00
2017-11-14T13:52:53.165Z,67.00
2017-11-14T13:55:25.061Z,66.90
2017-11-14T13:57:56.934Z,66.20
2017-11-14T14:00:28.832Z,66.20
2017-11-14T14:03:00.712Z,66.70
2017-11-14T14:05:33.394Z,66.00
2017-11-14T14:08:06.020Z,67.70
2017-11-14T14:10:37.930Z,67.00
2017-11-14T14:13:10.585Z,66.20
2017-11-14T14:15:42.505Z,66.10
2017-11-14T14:18:14.381Z,66.20
2017-11-14T14:20:46.268Z,67.60
2017-11-14T14:23:18.137Z,67.80
2017-11-14T14:25:50.033Z,67.80
2017-11-14T14:28:21.910Z,67.70
2017-11-14T14:30:53.814Z,67.50
2017-11-14T14:33:25.689Z,68.20
2017-11-14T14:35:57.577Z,68.10
2017-11-14T14:38:29.441Z,67.40
2017-11-14T14:41:01.358Z,67.70
2017-11-14T14:43:33.273Z,67.80
2017-11-14T14:46:05.181Z,67.80
2017-11-14T14:48:37.055Z,68.10
2017-11-14T14:51:08.945Z,68.80
2017-11-14T14:53:40.813Z,68.60
2017-11-14T14:56:12.718Z,68.70
2017-11-14T14:58:44.584Z,68.60
2017-11-14T15:01:16.485Z,68.80
2017-11-14T15:03:48.354Z,68.80
2017-11-14T15:06:20.261Z,68.60
2017-11-14T15:08:52.137Z,68.50
2017-11-14T15:11:24.791Z,68.20
2017-11-14T15:13:56.662Z,67.60
2017-11-14T15:16:28.570Z,68.20
2017-11-14T15:19:00.459Z,68.20
2017-11-14T15:21:32.362Z,68.10
2017-11-14T15:24:04.989Z,68.40
2017-11-14T15:26:36.896Z,68.30
2017-11-14T15:29:09.541Z,68.00
2017-11-14T15:31:41.520Z,67.90
2017-11-14T15:34:14.305Z,68.10
2017-11-14T15:36:46.202Z,68.30
2017-11-14T15:39:18.080Z,69.00
2017-11-14T15:41:49.969Z,68.80
2017-11-14T15:44:21.844Z,68.90
2017-11-14T15:46:53.759Z,68.90
2017-11-14T15:49:25.626Z,69.10
2017-11-14T15:51:57.528Z,68.70
2017-11-14T15:54:29.406Z,69.80
2017-11-14T15:57:02.059Z,69.80
2017-11-14T15:59:33.925Z,69.80
2017-11-14T16:02:05.810Z,69.70
2017-11-14T16:04:38.441Z,69.80
2017-11-14T16:07:10.324Z,69.70
2017-11-14T16:09:42.216Z,69.50
2017-11-14T16:12:14.100Z,69.90
2017-11-14T16:14:46.017Z,70.10
2017-11-14T16:17:18.712Z,70.50
2017-11-14T16:19:50.605Z,70.40
2017-11-14T16:22:22.507Z,69.90
2017-11-14T16:24:54.371Z,70.40
2017-11-14T16:27:26.285Z,70.10
2017-11-14T16:29:58.148Z,70.40
2017-11-14T16:32:30.125Z,70.50
2017-11-14T16:35:02.013Z,70.10
2017-11-14T16:37:34.041Z,70.30
2017-11-14T16:40:05.909Z,70.20
2017-11-14T16:42:37.824Z,70.10
2017-11-14T16:45:09.688Z,70.30
2017-11-14T16:47:41.604Z,70.10
2017-11-14T16:50:13.485Z,70.10
2017-11-14T16:52:46.145Z,71.00
2017-11-14T16:55:18.024Z,70.30
2017-11-14T16:57:50.687Z,70.60
2017-11-14T17:00:22.557Z,70.60
2017-11-14T17:02:55.208Z,70.40
2017-11-14T17:05:27.084Z,70.90
2017-11-14T17:07:58.996Z,71.10
2017-11-14T17:10:30.868Z,71.20
2017-11-14T17:13:02.769Z,72.00
2017-11-14T17:15:34.642Z,72.10
2017-11-14T17:18:07.304Z,72.60
2017-11-14T17:20:39.168Z,72.60
2017-11-14T17:23:11.053Z,73.10
2017-11-14T17:25:43.689Z,73.90
2017-11-14T17:28:15.566Z,73.80
2017-11-14T17:30:47.485Z,74.10
2017-11-14T17:33:19.396Z,74.40
2017-11-14T17:35:52.041Z,75.30
2017-11-14T17:38:23.953Z,75.20
2017-11-14T17:40:55.825Z,75.60
2017-11-14T17:43:27.731Z,75.70
2017-11-14T17:45:59.606Z,76.10
2017-11-14T17:48:31.493Z,76.30
2017-11-14T17:51:03.372Z,76.70
2017-11-14T17:53:35.306Z,76.70
2017-11-14T17:56:07.934Z,76.90
2017-11-14T17:58:39.846Z,76.90
2017-11-14T18:01:11.729Z,76.90
2017-11-14T18:03:43.618Z,77.00
2017-11-14T18:06:15.489Z,77.30
2017-11-14T18:08:47.395Z,77.30
2017-11-14T18:11:19.262Z,77.30
2017-11-14T18:13:51.164Z,77.30
2017-11-14T18:16:23.038Z,77.80
2017-11-14T18:18:54.937Z,77.80
2017-11-14T18:21:26.809Z,77.60
2017-11-14T18:23:58.713Z,77.90
2017-11-14T18:26:30.592Z,77.90
2017-11-14T18:29:02.504Z,77.90
2017-11-14T18:31:34.375Z,77.80
2017-11-14T18:34:07.321Z,78.20
2017-11-14T18:36:39.213Z,78.20
2017-11-14T18:39:11.129Z,78.60
2017-11-14T18:41:43.761Z,78.30
2017-11-14T18:44:15.668Z,78.20
2017-11-14T18:46:48.303Z,78.90
2017-11-14T18:49:20.204Z,78.80
2017-11-14T18:51:52.837Z,78.60
2017-11-14T18:54:24.741Z,78.60
2017-11-14T18:56:57.378Z,79.10
2017-11-14T18:59:29.283Z,79.10
2017-11-14T19:02:01.925Z,79.20
2017-11-14T19:04:33.837Z,79.20
2017-11-14T19:07:06.469Z,79.30
2017-11-14T19:09:38.371Z,79.30
2017-11-14T19:12:10.263Z,79.60
2017-11-14T19:14:42.165Z,79.50
2017-11-14T19:17:14.031Z,79.70
2017-11-14T19:19:46.788Z,79.60
2017-11-14T19:22:18.658Z,79.60
2017-11-14T19:24:50.571Z,80.10
2017-11-14T19:27:22.436Z,79.90
2017-11-14T19:29:54.356Z,80.00
2017-11-14T19:32:26.228Z,80.20
2017-11-14T19:34:58.885Z,80.10
2017-11-14T19:37:30.760Z,80.10
2017-11-14T19:40:03.425Z,80.10
2017-11-14T19:42:35.294Z,79.90
2017-11-14T19:45:07.956Z,80.60
2017-11-14T19:47:39.831Z,80.60
2017-11-14T19:50:12.499Z,81.10
2017-11-14T19:52:44.369Z,81.10
2017-11-14T19:55:16.332Z,81.00
2017-11-14T19:57:48.965Z,81.10
2017-11-14T20:00:20.864Z,81.00
2017-11-14T20:02:52.737Z,81.20
2017-11-14T20:05:25.416Z,81.70
2017-11-14T20:07:58.049Z,82.10
2017-11-14T20:10:29.924Z,82.10
2017-11-14T20:13:01.793Z,81.80
2017-11-14T20:15:33.698Z,82.10
2017-11-14T20:18:05.569Z,82.10
2017-11-14T20:20:37.478Z,82.50
2017-11-14T20:23:09.365Z,82.20
2017-11-14T20:25:41.257Z,82.80
2017-11-14T20:28:13.129Z,82.80
2017-11-14T20:30:45.022Z,82.90
2017-11-14T20:33:16.895Z,83.30
2017-11-14T20:35:49.564Z,84.10
2017-11-14T20:38:22.212Z,84.00
2017-11-14T20:40:54.105Z,84.00
2017-11-14T20:43:26.763Z,85.70
2017-11-14T20:45:58.661Z,84.90
2017-11-14T20:48:31.351Z,86.00
2017-11-14T20:51:03.233Z,86.00
2017-11-14T20:53:35.100Z,86.40
2017-11-14T20:56:07.013Z,87.30
2017-11-14T20:58:39.650Z,88.90
2017-11-14T21:01:11.566Z,88.80
2017-11-14T21:03:43.467Z,88.90
2017-11-14T21:06:15.376Z,89.90
2017-11-14T21:08:47.268Z,90.10
2017-11-14T21:11:19.173Z,90.60
2017-11-14T21:13:51.045Z,90.80
2017-11-14T21:16:23.755Z,91.40
2017-11-14T21:18:55.636Z,91.30
2017-11-14T21:21:27.564Z,91.40
2017-11-14T21:23:59.437Z,91.30
2017-11-14T21:26:31.390Z,91.40
2017-11-14T21:29:03.258Z,91.60
2017-11-14T21:31:35.184Z,91.90
2017-11-14T21:34:07.946Z,91.80
2017-11-14T21:36:41.434Z,92.20
2017-11-14T21:39:13.306Z,91.90
2017-11-14T21:41:45.217Z,92.00
2017-11-14T21:44:17.086Z,92.20
